Time;durP1;ratioP1;P1;durP2;ratioP2;P2;SDS_P1;SDS_P2;PMS_P1;PMS_P2;Temp;Humidity;BMP_temperature;BMP_pressure;BME280_temperature;BME280_humidity;BME280_pressure;Samples;Min_cycle;Max_cycle;Signal;HPM_P1;HPM_P2
2023/02/01 00:00:16;;;;;;;12.82;10.65;;;;;;;;;;10140547;28;20064;-69
2023/02/01 00:05:10;;;;;;;12.20;9.38;;;;;;;;;;10136050;28;20052;-68
2023/02/01 00:10:06;;;;;;;11.00;9.05;;;;;;;;;;10117393;28;20060;-69
2023/02/01 00:14:59;;;;;;;10.60;8.55;;;;;;;;;;10131128;28;20056;-70
2023/02/01 00:19:53;;;;;;;9.50;7.45;;;;;;;;;;10128234;28;20056;-68
2023/02/01 00:24:46;;;;;;;10.38;7.68;;;;;;;;;;10131902;28;20052;-69
2023/02/01 00:29:40;;;;;;;9.98;8.05;;;;;;;;;;10134266;28;20106;-69
2023/02/01 00:34:33;;;;;;;9.55;7.22;;;;;;;;;;10130206;28;20146;-68
2023/02/01 00:39:26;;;;;;;9.68;7.00;;;;;;;;;;10127145;28;20122;-68
2023/02/01 00:44:19;;;;;;;9.27;8.02;;;;;;;;;;10135487;28;20045;-69
2023/02/01 00:49:12;;;;;;;16.40;7.32;;;;;;;;;;10129576;28;20056;-69
2023/02/01 00:54:05;;;;;;;7.30;6.35;;;;;;;;;;10138482;28;20053;-70
2023/02/01 00:58:58;;;;;;;10.18;6.32;;;;;;;;;;10120379;28;20087;-70
2023/02/01 01:03:57;;;;;;;10.68;7.22;;;;;;;;;;10124904;28;20517;-70
2023/02/01 01:08:52;;;;;;;7.25;6.03;;;;;;;;;;10126200;28;20076;-70
2023/02/01 01:13:50;;;;;;;7.82;6.55;;;;;;;;;;10141019;28;20043;-70
2023/02/01 01:18:44;;;;;;;21.05;7.32;;;;;;;;;;10145954;28;20060;-69
2023/02/01 01:23:37;;;;;;;10.07;7.18;;;;;;;;;;10124707;28;20041;-69
2023/02/01 01:28:30;;;;;;;8.23;7.22;;;;;;;;;;10122696;28;20085;-69
2023/02/01 01:33:22;;;;;;;11.23;7.78;;;;;;;;;;10124123;28;20135;-69
2023/02/01 01:38:15;;;;;;;7.55;6.60;;;;;;;;;;10151935;28;20053;-69
2023/02/01 01:43:14;;;;;;;8.68;6.55;;;;;;;;;;10129782;28;20045;-71
2023/02/01 01:48:21;;;;;;;6.88;5.65;;;;;;;;;;10128460;28;20039;-69
2023/02/01 01:53:19;;;;;;;10.07;6.03;;;;;;;;;;10095277;28;20070;-70
2023/02/01 01:58:18;;;;;;;7.95;4.80;;;;;;;;;;10108335;28;20041;-68
2023/02/01 02:03:20;;;;;;;8.75;5.25;;;;;;;;;;10098759;28;20041;-67
2023/02/01 02:08:14;;;;;;;8.10;6.03;;;;;;;;;;10134123;28;20040;-69
2023/02/01 02:13:07;;;;;;;7.13;5.63;;;;;;;;;;10122310;28;20084;-70
2023/02/01 02:18:14;;;;;;;7.93;6.85;;;;;;;;;;10116201;28;20078;-70
2023/02/01 02:23:19;;;;;;;6.85;5.72;;;;;;;;;;10139330;28;20048;-69
2023/02/01 02:28:42;;;;;;;6.80;6.07;;;;;;;;;;10141476;28;20040;-68
2023/02/01 02:33:49;;;;;;;7.13;4.85;;;;;;;;;;10122862;28;20103;-69
2023/02/01 02:38:50;;;;;;;6.00;5.43;;;;;;;;;;10143642;28;20123;-69
2023/02/01 02:49:16;;;;;;;5.70;4.63;;;;;;;;;;10126640;28;20067;-70
2023/02/01 03:04:55;;;;;;;9.68;5.75;;;;;;;;;;10108112;28;20523;-69
2023/02/01 03:09:51;;;;;;;6.63;5.05;;;;;;;;;;10132831;28;20053;-69
2023/02/01 03:14:48;;;;;;;7.53;5.38;;;;;;;;;;10133993;28;20390;-70
2023/02/01 03:19:49;;;;;;;5.35;4.82;;;;;;;;;;10111341;28;20047;-69
2023/02/01 03:24:46;;;;;;;5.35;4.57;;;;;;;;;;10077758;28;20064;-70
2023/02/01 03:29:48;;;;;;;10.45;6.65;;;;;;;;;;10127899;28;20106;-69
2023/02/01 03:34:41;;;;;;;6.30;5.40;;;;;;;;;;10107732;28;20063;-69
2023/02/01 03:39:38;;;;;;;8.23;6.95;;;;;;;;;;10111509;28;20044;-69
2023/02/01 03:44:55;;;;;;;9.38;6.22;;;;;;;;;;10101137;28;20056;-69
2023/02/01 03:50:11;;;;;;;11.27;8.18;;;;;;;;;;10096533;28;20048;-69
2023/02/01 03:55:07;;;;;;;12.05;7.88;;;;;;;;;;10078880;28;20460;-69
2023/02/01 04:00:45;;;;;;;7.57;6.40;;;;;;;;;;10113177;28;20425;-69
2023/02/01 04:05:39;;;;;;;9.07;6.80;;;;;;;;;;10123845;28;20073;-69
2023/02/01 04:10:33;;;;;;;10.02;7.22;;;;;;;;;;10118905;28;20052;-69
2023/02/01 04:15:27;;;;;;;10.57;6.15;;;;;;;;;;10109470;28;20085;-69
2023/02/01 04:20:20;;;;;;;9.27;6.32;;;;;;;;;;10120172;28;20041;-70
2023/02/01 04:25:17;;;;;;;9.35;7.65;;;;;;;;;;10131922;28;20060;-69
2023/02/01 04:30:12;;;;;;;8.60;6.72;;;;;;;;;;10139074;28;20493;-69
2023/02/01 04:35:06;;;;;;;12.38;7.22;;;;;;;;;;10135035;28;20068;-70
2023/02/01 04:40:00;;;;;;;7.05;5.70;;;;;;;;;;10128508;28;20044;-69
2023/02/01 04:44:53;;;;;;;10.55;8.05;;;;;;;;;;10137257;28;20072;-68
2023/02/01 04:49:47;;;;;;;9.88;7.63;;;;;;;;;;10148800;28;20105;-70
2023/02/01 04:54:42;;;;;;;9.35;7.00;;;;;;;;;;10171167;28;20135;-70
2023/02/01 04:59:36;;;;;;;10.50;7.97;;;;;;;;;;10163110;28;20458;-69
2023/02/01 05:04:30;;;;;;;16.60;7.60;;;;;;;;;;10145218;28;20068;-70
2023/02/01 05:09:24;;;;;;;12.43;7.15;;;;;;;;;;10162197;28;20052;-70
2023/02/01 05:14:17;;;;;;;12.15;8.35;;;;;;;;;;10112201;28;20095;-68
2023/02/01 05:19:10;;;;;;;10.18;7.03;;;;;;;;;;10136574;28;20051;-69
2023/02/01 05:24:19;;;;;;;13.45;6.78;;;;;;;;;;10132826;28;20103;-69
2023/02/01 05:29:13;;;;;;;14.18;8.02;;;;;;;;;;10135959;28;20051;-67
2023/02/01 05:34:06;;;;;;;10.50;7.15;;;;;;;;;;10124311;28;20049;-68
2023/02/01 05:38:59;;;;;;;9.00;6.30;;;;;;;;;;10147058;28;20412;-70
2023/02/01 05:43:52;;;;;;;10.30;6.68;;;;;;;;;;10125604;28;20049;-68
2023/02/01 05:48:46;;;;;;;10.20;7.50;;;;;;;;;;10134824;28;20045;-67
2023/02/01 05:53:42;;;;;;;7.95;6.30;;;;;;;;;;10054651;28;20111;-65
2023/02/01 05:58:41;;;;;;;9.80;6.90;;;;;;;;;;10058969;28;20042;-66
2023/02/01 06:03:41;;;;;;;12.85;7.70;;;;;;;;;;10057098;28;20045;-66
2023/02/01 06:08:43;;;;;;;11.48;8.55;;;;;;;;;;10052889;28;20133;-65
2023/02/01 06:13:45;;;;;;;11.27;8.15;;;;;;;;;;10050686;28;20047;-68
2023/02/01 06:18:43;;;;;;;12.32;9.43;;;;;;;;;;10047865;28;20037;-67
2023/02/01 06:23:38;;;;;;;12.95;8.02;;;;;;;;;;10049947;28;20058;-68
2023/02/01 06:28:33;;;;;;;13.60;9.52;;;;;;;;;;10050954;28;20049;-68
2023/02/01 06:33:31;;;;;;;8.90;6.75;;;;;;;;;;10049065;28;20060;-68
2023/02/01 06:38:30;;;;;;;12.15;8.43;;;;;;;;;;10050431;28;20509;-68
2023/02/01 06:43:28;;;;;;;15.93;8.55;;;;;;;;;;10050893;28;20719;-68
2023/02/01 06:48:27;;;;;;;13.25;7.65;;;;;;;;;;10053613;28;20441;-67
2023/02/01 06:53:20;;;;;;;13.73;9.07;;;;;;;;;;10144895;28;20084;-67
2023/02/01 06:58:15;;;;;;;11.85;8.10;;;;;;;;;;10123727;28;20508;-67
2023/02/01 07:03:09;;;;;;;13.85;8.68;;;;;;;;;;10125116;28;21224;-67
2023/02/01 07:08:03;;;;;;;50.58;27.92;;;;;;;;;;10122588;28;20053;-68
2023/02/01 07:12:57;;;;;;;30.00;18.25;;;;;;;;;;10126988;28;20081;-67
2023/02/01 07:17:51;;;;;;;26.90;13.88;;;;;;;;;;10124213;28;20052;-67
2023/02/01 07:22:45;;;;;;;18.45;11.48;;;;;;;;;;10102433;28;20079;-67
2023/02/01 07:27:38;;;;;;;12.90;9.18;;;;;;;;;;10118546;28;20052;-67
2023/02/01 07:32:31;;;;;;;21.15;11.32;;;;;;;;;;10130454;28;20041;-67
2023/02/01 07:37:25;;;;;;;13.07;9.27;;;;;;;;;;10127973;28;20049;-66
2023/02/01 07:42:18;;;;;;;13.18;9.80;;;;;;;;;;10118465;28;20076;-67
2023/02/01 07:47:12;;;;;;;13.45;8.82;;;;;;;;;;10128891;28;20048;-67
2023/02/01 07:52:05;;;;;;;10.45;8.15;;;;;;;;;;10118285;28;20111;-67
2023/02/01 07:56:59;;;;;;;14.52;8.90;;;;;;;;;;10114724;28;20424;-67
2023/02/01 08:01:52;;;;;;;15.98;9.80;;;;;;;;;;10122462;28;20106;-68
2023/02/01 08:06:46;;;;;;;16.20;8.65;;;;;;;;;;10122187;28;20148;-67
2023/02/01 08:11:40;;;;;;;11.68;7.75;;;;;;;;;;10116060;28;20061;-67
2023/02/01 08:16:36;;;;;;;12.88;6.85;;;;;;;;;;10132435;28;20052;-67
2023/02/01 08:21:36;;;;;;;12.57;8.63;;;;;;;;;;10135159;28;20561;-67
2023/02/01 08:26:29;;;;;;;11.93;7.80;;;;;;;;;;10121208;28;20119;-66
2023/02/01 08:31:24;;;;;;;26.10;9.48;;;;;;;;;;10130416;28;20056;-66
2023/02/01 08:36:24;;;;;;;15.77;11.48;;;;;;;;;;10128187;28;20057;-66
2023/02/01 08:41:22;;;;;;;20.35;13.02;;;;;;;;;;10126787;28;20037;-65
2023/02/01 08:46:17;;;;;;;21.65;13.48;;;;;;;;;;10123649;28;20874;-65
2023/02/01 08:51:16;;;;;;;20.42;13.75;;;;;;;;;;10123904;28;20076;-68
2023/02/01 08:56:12;;;;;;;27.00;16.77;;;;;;;;;;10124668;28;20048;-67
2023/02/01 09:01:15;;;;;;;29.10;17.20;;;;;;;;;;10122231;28;20140;-66
2023/02/01 09:06:12;;;;;;;30.30;17.83;;;;;;;;;;10122014;28;20052;-65
2023/02/01 09:11:09;;;;;;;23.77;15.57;;;;;;;;;;10131930;28;20048;-67
2023/02/01 09:16:04;;;;;;;20.52;15.27;;;;;;;;;;10114367;28;20048;-66
2023/02/01 09:20:57;;;;;;;22.23;13.43;;;;;;;;;;10131772;28;20048;-67
2023/02/01 09:25:51;;;;;;;21.70;14.13;;;;;;;;;;10131122;28;20769;-67
2023/02/01 09:30:45;;;;;;;26.08;14.93;;;;;;;;;;10134901;28;20782;-67
2023/02/01 09:35:38;;;;;;;20.58;14.55;;;;;;;;;;10126137;28;20509;-67
2023/02/01 09:40:31;;;;;;;21.13;15.50;;;;;;;;;;10132723;28;20401;-67
2023/02/01 09:45:28;;;;;;;36.88;27.35;;;;;;;;;;10129309;28;20048;-67
2023/02/01 09:50:28;;;;;;;37.85;23.75;;;;;;;;;;10124133;28;20432;-67
2023/02/01 09:55:39;;;;;;;41.83;26.17;;;;;;;;;;10134618;28;20525;-67
2023/02/01 10:00:39;;;;;;;43.90;30.08;;;;;;;;;;10137498;28;20545;-67
2023/02/01 10:05:54;;;;;;;46.22;30.55;;;;;;;;;;10133209;28;20052;-66
2023/02/01 10:10:49;;;;;;;82.95;50.22;;;;;;;;;;10134499;28;20910;-66
2023/02/01 10:16:02;;;;;;;45.40;29.80;;;;;;;;;;10132821;28;20098;-66
2023/02/01 10:21:19;;;;;;;27.33;19.83;;;;;;;;;;10131389;28;20055;-66
2023/02/01 10:26:18;;;;;;;37.78;25.15;;;;;;;;;;10134498;28;20052;-66
2023/02/01 10:31:13;;;;;;;30.52;22.30;;;;;;;;;;10137347;28;20413;-66
2023/02/01 10:36:08;;;;;;;28.20;20.52;;;;;;;;;;10130709;28;20032;-67
2023/02/01 10:41:04;;;;;;;28.75;21.75;;;;;;;;;;10119386;28;20070;-66
2023/02/01 10:45:56;;;;;;;33.15;22.70;;;;;;;;;;10117190;28;20045;-67
2023/02/01 10:51:01;;;;;;;31.27;24.10;;;;;;;;;;10129676;28;20868;-66
2023/02/01 10:55:55;;;;;;;31.77;22.90;;;;;;;;;;10130610;28;20111;-66
2023/02/01 11:00:53;;;;;;;26.55;18.90;;;;;;;;;;10131856;28;20052;-66
2023/02/01 11:05:46;;;;;;;26.73;19.15;;;;;;;;;;10118883;28;20052;-66
2023/02/01 11:10:42;;;;;;;19.02;17.02;;;;;;;;;;10115354;28;20067;-65
2023/02/01 11:15:35;;;;;;;22.17;17.50;;;;;;;;;;10128314;28;20103;-65
2023/02/01 11:20:31;;;;;;;24.58;17.77;;;;;;;;;;10129224;28;20119;-65
2023/02/01 11:25:24;;;;;;;24.95;15.98;;;;;;;;;;10124656;28;20040;-65
2023/02/01 11:30:27;;;;;;;21.48;15.02;;;;;;;;;;10111452;28;20052;-65
2023/02/01 11:35:21;;;;;;;21.75;14.65;;;;;;;;;;10134461;28;20082;-65
2023/02/01 11:40:16;;;;;;;16.33;14.43;;;;;;;;;;10130342;28;20504;-65
2023/02/01 11:45:34;;;;;;;21.30;15.07;;;;;;;;;;10126994;28;20060;-65
2023/02/01 11:50:49;;;;;;;20.35;14.88;;;;;;;;;;10117598;28;20160;-65
2023/02/01 11:56:00;;;;;;;20.48;14.82;;;;;;;;;;10131295;28;20134;-64
2023/02/01 12:00:59;;;;;;;20.65;13.23;;;;;;;;;;10128079;28;20060;-64
2023/02/01 12:06:13;;;;;;;20.48;14.02;;;;;;;;;;10130945;28;20098;-64
2023/02/01 12:11:37;;;;;;;20.02;14.23;;;;;;;;;;10127019;28;20490;-64
2023/02/01 12:16:50;;;;;;;24.60;13.85;;;;;;;;;;10116478;28;20049;-62
2023/02/01 12:22:04;;;;;;;18.90;14.05;;;;;;;;;;10120441;28;20405;-64
2023/02/01 12:27:32;;;;;;;21.50;14.55;;;;;;;;;;10124935;28;20049;-63
2023/02/01 12:32:52;;;;;;;16.55;13.00;;;;;;;;;;10048166;28;20618;-63
2023/02/01 12:38:16;;;;;;;22.35;14.20;;;;;;;;;;10123191;28;20045;-63
2023/02/01 12:43:21;;;;;;;18.60;13.82;;;;;;;;;;10123172;28;20063;-64
2023/02/01 12:48:33;;;;;;;26.20;14.48;;;;;;;;;;10124136;28;20495;-64
2023/02/01 12:53:32;;;;;;;28.52;15.95;;;;;;;;;;10110247;28;20099;-64
2023/02/01 12:58:44;;;;;;;17.40;14.13;;;;;;;;;;10100461;28;20048;-64
2023/02/01 13:03:56;;;;;;;22.33;14.43;;;;;;;;;;10089229;28;20053;-64
2023/02/01 13:08:57;;;;;;;19.55;13.65;;;;;;;;;;10105465;28;20045;-65
2023/02/01 13:14:31;;;;;;;32.50;18.85;;;;;;;;;;10115084;28;20052;-64
2023/02/01 13:19:47;;;;;;;22.40;16.63;;;;;;;;;;10062578;28;20067;-65
2023/02/01 13:24:45;;;;;;;25.10;16.27;;;;;;;;;;10097480;28;20155;-66
2023/02/01 13:29:56;;;;;;;21.17;15.27;;;;;;;;;;10105278;28;20054;-64
2023/02/01 13:35:05;;;;;;;27.23;17.55;;;;;;;;;;10103061;28;20063;-67
2023/02/01 13:40:23;;;;;;;32.20;20.88;;;;;;;;;;10105509;28;20049;-66
2023/02/01 13:45:20;;;;;;;41.00;32.38;;;;;;;;;;10094660;28;20077;-66
2023/02/01 13:50:33;;;;;;;23.80;15.90;;;;;;;;;;10100693;28;20057;-65
2023/02/01 13:56:00;;;;;;;25.77;17.52;;;;;;;;;;10133971;28;20068;-67
2023/02/01 14:01:34;;;;;;;24.90;16.65;;;;;;;;;;10153262;28;20078;-67
2023/02/01 14:06:29;;;;;;;31.48;16.77;;;;;;;;;;10139479;28;20405;-66
2023/02/01 14:11:42;;;;;;;24.50;16.67;;;;;;;;;;10156617;28;20051;-66
2023/02/01 14:16:35;;;;;;;26.70;22.38;;;;;;;;;;10128201;28;20655;-64
2023/02/01 14:21:29;;;;;;;28.55;18.23;;;;;;;;;;10162119;28;20408;-65
2023/02/01 14:26:34;;;;;;;20.30;16.75;;;;;;;;;;10158175;28;20123;-65
2023/02/01 14:31:50;;;;;;;30.10;16.70;;;;;;;;;;10118796;28;20132;-64
2023/02/01 14:36:51;;;;;;;27.80;18.05;;;;;;;;;;10120115;28;20057;-64
2023/02/01 14:41:44;;;;;;;19.13;16.30;;;;;;;;;;10136102;28;20098;-64
2023/02/01 14:47:04;;;;;;;28.48;19.02;;;;;;;;;;10143195;28;20041;-64
2023/02/01 14:51:57;;;;;;;26.88;18.77;;;;;;;;;;10136310;28;20057;-65
2023/02/01 14:56:51;;;;;;;28.83;19.95;;;;;;;;;;10117844;28;20042;-64
2023/02/01 15:01:51;;;;;;;27.17;17.42;;;;;;;;;;10130711;28;20144;-63
2023/02/01 15:06:57;;;;;;;28.58;20.42;;;;;;;;;;10131383;28;20084;-65
2023/02/01 15:12:13;;;;;;;33.80;20.70;;;;;;;;;;10165816;28;20043;-64
2023/02/01 15:17:24;;;;;;;32.20;20.63;;;;;;;;;;10143576;28;20086;-64
2023/02/01 15:22:20;;;;;;;31.25;21.42;;;;;;;;;;10133315;28;20049;-63
2023/02/01 15:27:14;;;;;;;34.15;21.75;;;;;;;;;;10142514;28;20053;-63
2023/02/01 15:32:34;;;;;;;29.30;19.58;;;;;;;;;;10120305;28;20068;-63
2023/02/01 15:37:28;;;;;;;29.80;19.85;;;;;;;;;;10151040;28;20493;-64
2023/02/01 15:42:21;;;;;;;26.60;19.83;;;;;;;;;;10130834;28;20052;-64
2023/02/01 15:47:25;;;;;;;26.85;20.50;;;;;;;;;;10130914;28;20076;-65
2023/02/01 15:52:31;;;;;;;29.38;19.13;;;;;;;;;;10149049;28;20056;-66
2023/02/01 15:57:31;;;;;;;33.33;19.90;;;;;;;;;;10147419;28;20061;-64
2023/02/01 16:02:29;;;;;;;27.80;19.15;;;;;;;;;;10130218;28;20056;-65
2023/02/01 16:07:34;;;;;;;26.30;18.92;;;;;;;;;;10109509;28;20506;-67
2023/02/01 16:12:37;;;;;;;28.65;22.08;;;;;;;;;;10104979;28;20048;-66
2023/02/01 16:17:31;;;;;;;35.95;21.58;;;;;;;;;;10115974;28;20052;-66
2023/02/01 16:22:25;;;;;;;31.98;21.42;;;;;;;;;;10126198;28;20139;-66
2023/02/01 16:27:18;;;;;;;26.38;19.27;;;;;;;;;;10129286;28;20072;-67
2023/02/01 16:32:17;;;;;;;31.70;19.30;;;;;;;;;;10127634;28;20063;-66
2023/02/01 16:37:13;;;;;;;33.10;22.10;;;;;;;;;;10113468;28;20140;-67
2023/02/01 16:42:13;;;;;;;41.13;22.20;;;;;;;;;;10123563;28;20587;-66
2023/02/01 16:47:13;;;;;;;36.65;24.25;;;;;;;;;;10124179;28;20044;-66
2023/02/01 16:52:14;;;;;;;33.30;24.98;;;;;;;;;;10128854;28;20045;-65
2023/02/01 16:57:13;;;;;;;37.75;25.55;;;;;;;;;;10124673;28;20052;-64
2023/02/01 17:02:09;;;;;;;55.53;29.02;;;;;;;;;;10121351;28;20454;-65
2023/02/01 17:07:08;;;;;;;40.70;28.00;;;;;;;;;;10148020;28;20098;-66
2023/02/01 17:12:02;;;;;;;43.00;28.83;;;;;;;;;;10132597;28;20052;-65
2023/02/01 17:16:56;;;;;;;51.03;28.98;;;;;;;;;;10147561;28;20044;-68
2023/02/01 17:21:55;;;;;;;56.17;33.30;;;;;;;;;;10146032;28;20055;-64
2023/02/01 17:26:52;;;;;;;50.80;32.13;;;;;;;;;;10158315;28;20044;-64
2023/02/01 17:31:50;;;;;;;45.88;30.20;;;;;;;;;;10154833;28;20044;-65
2023/02/01 17:36:44;;;;;;;42.17;28.30;;;;;;;;;;10123248;28;20054;-65
2023/02/01 17:41:37;;;;;;;38.63;27.73;;;;;;;;;;10137212;28;20473;-65
2023/02/01 17:46:31;;;;;;;38.95;26.70;;;;;;;;;;10116857;28;20052;-65
2023/02/01 17:51:27;;;;;;;38.20;26.25;;;;;;;;;;10132374;28;20541;-66
2023/02/01 17:56:21;;;;;;;43.15;27.13;;;;;;;;;;10103367;28;20132;-66
2023/02/01 18:01:22;;;;;;;49.50;32.45;;;;;;;;;;10143271;28;20132;-65
2023/02/01 18:06:18;;;;;;;53.08;30.50;;;;;;;;;;10130708;28;20072;-65
2023/02/01 18:11:15;;;;;;;40.92;31.35;;;;;;;;;;10123644;28;20053;-65
2023/02/01 18:16:45;;;;;;;53.53;34.15;;;;;;;;;;10135578;28;20045;-65
2023/02/01 18:21:40;;;;;;;50.63;32.80;;;;;;;;;;10115608;28;20098;-65
2023/02/01 18:26:34;;;;;;;58.95;33.55;;;;;;;;;;10159621;28;20151;-66
2023/02/01 18:31:30;;;;;;;50.95;31.48;;;;;;;;;;10175029;28;20523;-68
2023/02/01 18:36:24;;;;;;;51.20;37.20;;;;;;;;;;10162980;28;20067;-68
2023/02/01 18:41:21;;;;;;;46.38;33.28;;;;;;;;;;10143208;28;20044;-68
2023/02/01 18:46:31;;;;;;;54.40;34.28;;;;;;;;;;10136930;28;20048;-65
2023/02/01 18:51:25;;;;;;;42.63;31.60;;;;;;;;;;10128048;28;20536;-62
2023/02/01 18:56:19;;;;;;;52.67;35.72;;;;;;;;;;10149901;28;20405;-62
2023/02/01 19:01:15;;;;;;;44.67;29.52;;;;;;;;;;10140068;28;20048;-62
2023/02/01 19:06:08;;;;;;;63.03;38.38;;;;;;;;;;10154029;28;20052;-63
2023/02/01 19:11:08;;;;;;;59.30;39.03;;;;;;;;;;10124943;28;20060;-67
2023/02/01 19:16:10;;;;;;;70.88;53.92;;;;;;;;;;10133660;28;20080;-62
2023/02/01 19:21:07;;;;;;;63.70;42.00;;;;;;;;;;10146442;28;20048;-68
2023/02/01 19:26:01;;;;;;;66.85;44.05;;;;;;;;;;10148881;28;20082;-63
2023/02/01 19:31:02;;;;;;;63.50;42.47;;;;;;;;;;10130334;28;20249;-69
2023/02/01 19:35:59;;;;;;;74.40;49.45;;;;;;;;;;10118536;28;20152;-65
2023/02/01 19:40:54;;;;;;;99.57;61.00;;;;;;;;;;10119440;28;20049;-65
2023/02/01 19:45:48;;;;;;;74.05;50.53;;;;;;;;;;10138817;28;20059;-64
2023/02/01 19:50:44;;;;;;;81.07;53.40;;;;;;;;;;10135746;28;20053;-67
2023/02/01 19:55:37;;;;;;;68.75;48.03;;;;;;;;;;10152040;28;20044;-63
2023/02/01 20:00:31;;;;;;;95.85;70.53;;;;;;;;;;10137684;28;20489;-64
2023/02/01 20:05:25;;;;;;;66.50;49.53;;;;;;;;;;10131139;28;20079;-64
2023/02/01 20:10:19;;;;;;;68.10;47.97;;;;;;;;;;10139831;28;20053;-69
2023/02/01 20:15:12;;;;;;;75.68;51.88;;;;;;;;;;10140679;28;20044;-66
2023/02/01 20:20:10;;;;;;;74.20;56.15;;;;;;;;;;10136537;28;20037;-68
2023/02/01 20:25:04;;;;;;;62.13;47.15;;;;;;;;;;10147020;28;20043;-69
2023/02/01 20:29:56;;;;;;;65.47;46.90;;;;;;;;;;10153210;28;20044;-67
2023/02/01 20:34:52;;;;;;;56.20;40.60;;;;;;;;;;10134599;28;20055;-67
2023/02/01 20:39:46;;;;;;;54.20;37.40;;;;;;;;;;10137870;28;20072;-69
2023/02/01 20:44:39;;;;;;;63.42;40.17;;;;;;;;;;10146903;28;20098;-69
2023/02/01 20:49:39;;;;;;;60.42;42.33;;;;;;;;;;10133948;28;20416;-69
2023/02/01 20:54:33;;;;;;;62.58;41.53;;;;;;;;;;10134574;28;20040;-68
2023/02/01 20:59:26;;;;;;;52.10;36.08;;;;;;;;;;10134355;28;20080;-68
2023/02/01 21:04:23;;;;;;;52.47;36.88;;;;;;;;;;10126157;28;20451;-68
2023/02/01 21:09:16;;;;;;;46.17;32.72;;;;;;;;;;10140354;28;20044;-68
2023/02/01 21:14:09;;;;;;;35.38;28.52;;;;;;;;;;10129131;28;20060;-67
2023/02/01 21:19:01;;;;;;;34.15;25.42;;;;;;;;;;10139569;28;20135;-67
2023/02/01 21:23:56;;;;;;;30.35;23.88;;;;;;;;;;10140088;28;20045;-68
2023/02/01 21:28:53;;;;;;;25.92;17.45;;;;;;;;;;10145677;28;20041;-69
2023/02/01 21:33:46;;;;;;;27.63;21.63;;;;;;;;;;10136165;28;20136;-68
2023/02/01 21:38:40;;;;;;;35.00;25.27;;;;;;;;;;10140447;28;20128;-68
2023/02/01 21:43:35;;;;;;;37.22;27.75;;;;;;;;;;10126384;28;20052;-67
2023/02/01 21:48:28;;;;;;;33.03;25.40;;;;;;;;;;10135520;28;20076;-68
2023/02/01 21:53:42;;;;;;;30.50;23.45;;;;;;;;;;10145151;28;20052;-67
2023/02/01 21:58:37;;;;;;;35.05;23.40;;;;;;;;;;10135521;28;20065;-68
2023/02/01 22:03:31;;;;;;;25.20;19.67;;;;;;;;;;10140251;28;20079;-68
2023/02/01 22:08:25;;;;;;;23.98;19.33;;;;;;;;;;10133933;28;20060;-66
2023/02/01 22:13:19;;;;;;;20.88;15.43;;;;;;;;;;10126631;28;20052;-70
2023/02/01 22:18:14;;;;;;;20.02;15.93;;;;;;;;;;10128690;28;20057;-68
2023/02/01 22:23:08;;;;;;;17.10;14.45;;;;;;;;;;10129772;28;20052;-69
2023/02/01 22:28:01;;;;;;;21.17;18.15;;;;;;;;;;10135435;28;20049;-70
2023/02/01 22:33:14;;;;;;;28.67;20.45;;;;;;;;;;10131886;28;20041;-69
2023/02/01 22:38:08;;;;;;;22.95;19.08;;;;;;;;;;10128899;28;20071;-69
2023/02/01 22:43:02;;;;;;;20.20;16.75;;;;;;;;;;10140586;28;20418;-70
2023/02/01 22:47:56;;;;;;;27.77;19.48;;;;;;;;;;10132938;28;20056;-69
2023/02/01 22:52:51;;;;;;;24.75;17.02;;;;;;;;;;10141302;28;20060;-69
2023/02/01 22:57:46;;;;;;;24.25;16.02;;;;;;;;;;10134053;28;20103;-68
2023/02/01 23:02:43;;;;;;;23.73;15.87;;;;;;;;;;10125076;28;20055;-68
2023/02/01 23:07:35;;;;;;;23.42;15.63;;;;;;;;;;10123375;28;20049;-69
2023/02/01 23:12:31;;;;;;;19.75;15.18;;;;;;;;;;10125371;28;20045;-69
2023/02/01 23:17:26;;;;;;;25.25;16.02;;;;;;;;;;10128811;28;20041;-69
2023/02/01 23:22:20;;;;;;;21.83;16.80;;;;;;;;;;10126717;28;20052;-69
2023/02/01 23:27:14;;;;;;;28.02;21.10;;;;;;;;;;10137900;28;20131;-69
2023/02/01 23:32:07;;;;;;;24.05;17.35;;;;;;;;;;10137268;28;20045;-70
2023/02/01 23:37:00;;;;;;;20.42;14.82;;;;;;;;;;10138644;28;20040;-70
2023/02/01 23:41:55;;;;;;;19.85;13.15;;;;;;;;;;10141118;28;20036;-70
2023/02/01 23:46:48;;;;;;;17.77;11.20;;;;;;;;;;10136800;28;20527;-70
2023/02/01 23:51:51;;;;;;;15.18;11.60;;;;;;;;;;10139995;28;20091;-69
2023/02/01 23:56:49;;;;;;;11.70;9.05;;;;;;;;;;10136434;28;20072;-70
